sensor_id;sensor_type;location;lat;lon;timestamp;P1;durP1;ratioP1;P2;durP2;ratioP2
14205;SDS011;7186;48.800;9.216;2022-08-19T00:01:35;16.30;;;12.57;;
14205;SDS011;7186;48.800;9.216;2022-08-19T00:04:03;16.03;;;12.77;;
14205;SDS011;7186;48.800;9.216;2022-08-19T00:06:30;18.43;;;13.50;;
14205;SDS011;7186;48.800;9.216;2022-08-19T00:08:56;15.73;;;12.57;;
14205;SDS011;7186;48.800;9.216;2022-08-19T00:11:25;15.00;;;13.13;;
14205;SDS011;7186;48.800;9.216;2022-08-19T00:13:52;15.90;;;12.70;;
14205;SDS011;7186;48.800;9.216;2022-08-19T00:16:18;14.60;;;12.30;;
14205;SDS011;7186;48.800;9.216;2022-08-19T00:18:45;15.87;;;13.33;;
14205;SDS011;7186;48.800;9.216;2022-08-19T00:21:10;15.57;;;13.13;;
14205;SDS011;7186;48.800;9.216;2022-08-19T00:23:36;15.97;;;12.90;;
14205;SDS011;7186;48.800;9.216;2022-08-19T00:26:05;20.10;;;13.27;;
14205;SDS011;7186;48.800;9.216;2022-08-19T00:28:31;18.07;;;12.73;;
14205;SDS011;7186;48.800;9.216;2022-08-19T00:30:58;15.13;;;13.07;;
14205;SDS011;7186;48.800;9.216;2022-08-19T00:33:24;15.70;;;12.87;;
14205;SDS011;7186;48.800;9.216;2022-08-19T00:35:50;15.67;;;12.57;;
14205;SDS011;7186;48.800;9.216;2022-08-19T00:38:15;16.60;;;13.17;;
14205;SDS011;7186;48.800;9.216;2022-08-19T00:40:42;14.40;;;11.83;;
14205;SDS011;7186;48.800;9.216;2022-08-19T00:43:11;17.80;;;12.77;;
14205;SDS011;7186;48.800;9.216;2022-08-19T00:45:40;16.97;;;13.00;;
14205;SDS011;7186;48.800;9.216;2022-08-19T00:48:08;17.23;;;12.80;;
14205;SDS011;7186;48.800;9.216;2022-08-19T00:50:34;14.00;;;11.97;;
14205;SDS011;7186;48.800;9.216;2022-08-19T00:53:00;15.63;;;12.83;;
14205;SDS011;7186;48.800;9.216;2022-08-19T00:55:29;15.20;;;12.40;;
14205;SDS011;7186;48.800;9.216;2022-08-19T00:57:58;17.20;;;13.03;;
14205;SDS011;7186;48.800;9.216;2022-08-19T01:00:28;15.47;;;12.73;;
14205;SDS011;7186;48.800;9.216;2022-08-19T01:02:54;16.43;;;12.57;;
14205;SDS011;7186;48.800;9.216;2022-08-19T01:05:21;14.77;;;12.07;;
14205;SDS011;7186;48.800;9.216;2022-08-19T01:07:52;17.47;;;13.27;;
14205;SDS011;7186;48.800;9.216;2022-08-19T01:10:20;16.43;;;13.20;;
14205;SDS011;7186;48.800;9.216;2022-08-19T01:12:48;15.53;;;12.70;;
14205;SDS011;7186;48.800;9.216;2022-08-19T01:15:16;14.67;;;12.43;;
14205;SDS011;7186;48.800;9.216;2022-08-19T01:17:43;17.80;;;13.37;;
14205;SDS011;7186;48.800;9.216;2022-08-19T01:20:14;17.20;;;13.53;;
14205;SDS011;7186;48.800;9.216;2022-08-19T01:22:45;18.53;;;14.13;;
14205;SDS011;7186;48.800;9.216;2022-08-19T01:25:12;17.70;;;12.50;;
14205;SDS011;7186;48.800;9.216;2022-08-19T01:27:40;18.67;;;12.57;;
14205;SDS011;7186;48.800;9.216;2022-08-19T01:30:08;18.97;;;13.30;;
14205;SDS011;7186;48.800;9.216;2022-08-19T01:32:35;18.20;;;13.93;;
14205;SDS011;7186;48.800;9.216;2022-08-19T01:35:02;17.23;;;13.80;;
14205;SDS011;7186;48.800;9.216;2022-08-19T01:37:29;17.90;;;12.83;;
14205;SDS011;7186;48.800;9.216;2022-08-19T01:40:06;18.63;;;13.70;;
14205;SDS011;7186;48.800;9.216;2022-08-19T01:42:33;16.80;;;13.47;;
14205;SDS011;7186;48.800;9.216;2022-08-19T01:44:58;19.40;;;13.13;;
14205;SDS011;7186;48.800;9.216;2022-08-19T01:47:24;20.43;;;14.33;;
14205;SDS011;7186;48.800;9.216;2022-08-19T01:49:49;17.63;;;13.80;;
14205;SDS011;7186;48.800;9.216;2022-08-19T01:52:14;17.97;;;13.60;;
14205;SDS011;7186;48.800;9.216;2022-08-19T01:54:40;17.37;;;13.63;;
14205;SDS011;7186;48.800;9.216;2022-08-19T01:57:07;17.93;;;13.33;;
14205;SDS011;7186;48.800;9.216;2022-08-19T01:59:36;17.43;;;14.73;;
14205;SDS011;7186;48.800;9.216;2022-08-19T02:02:02;21.60;;;14.30;;
14205;SDS011;7186;48.800;9.216;2022-08-19T02:04:32;19.93;;;15.00;;
14205;SDS011;7186;48.800;9.216;2022-08-19T02:06:57;20.33;;;14.73;;
14205;SDS011;7186;48.800;9.216;2022-08-19T02:09:22;19.07;;;14.43;;
14205;SDS011;7186;48.800;9.216;2022-08-19T02:11:48;18.97;;;14.50;;
14205;SDS011;7186;48.800;9.216;2022-08-19T02:14:13;19.33;;;15.07;;
14205;SDS011;7186;48.800;9.216;2022-08-19T02:16:38;22.13;;;15.27;;
14205;SDS011;7186;48.800;9.216;2022-08-19T02:19:05;20.37;;;14.80;;
14205;SDS011;7186;48.800;9.216;2022-08-19T02:21:30;20.13;;;15.00;;
14205;SDS011;7186;48.800;9.216;2022-08-19T02:23:56;20.33;;;15.93;;
14205;SDS011;7186;48.800;9.216;2022-08-19T02:26:22;20.17;;;14.27;;
14205;SDS011;7186;48.800;9.216;2022-08-19T02:28:48;18.83;;;14.93;;
14205;SDS011;7186;48.800;9.216;2022-08-19T02:31:15;22.20;;;15.53;;
14205;SDS011;7186;48.800;9.216;2022-08-19T02:33:43;21.37;;;16.37;;
14205;SDS011;7186;48.800;9.216;2022-08-19T02:36:10;21.63;;;15.33;;
14205;SDS011;7186;48.800;9.216;2022-08-19T02:38:37;22.17;;;16.47;;
14205;SDS011;7186;48.800;9.216;2022-08-19T02:41:04;21.47;;;16.77;;
14205;SDS011;7186;48.800;9.216;2022-08-19T02:43:32;22.73;;;16.50;;
14205;SDS011;7186;48.800;9.216;2022-08-19T02:46:10;23.87;;;16.80;;
14205;SDS011;7186;48.800;9.216;2022-08-19T02:48:36;22.33;;;16.33;;
14205;SDS011;7186;48.800;9.216;2022-08-19T02:51:02;25.07;;;17.63;;
14205;SDS011;7186;48.800;9.216;2022-08-19T02:53:28;23.13;;;16.87;;
14205;SDS011;7186;48.800;9.216;2022-08-19T02:55:53;20.43;;;15.17;;
14205;SDS011;7186;48.800;9.216;2022-08-19T02:58:19;23.57;;;17.47;;
14205;SDS011;7186;48.800;9.216;2022-08-19T03:00:47;21.77;;;16.50;;
14205;SDS011;7186;48.800;9.216;2022-08-19T03:03:15;24.00;;;18.00;;
14205;SDS011;7186;48.800;9.216;2022-08-19T03:05:41;26.23;;;17.93;;
14205;SDS011;7186;48.800;9.216;2022-08-19T03:08:08;25.43;;;18.53;;
14205;SDS011;7186;48.800;9.216;2022-08-19T03:10:44;25.03;;;17.87;;
14205;SDS011;7186;48.800;9.216;2022-08-19T03:13:12;24.30;;;17.47;;
14205;SDS011;7186;48.800;9.216;2022-08-19T03:15:40;24.80;;;17.97;;
14205;SDS011;7186;48.800;9.216;2022-08-19T03:18:10;22.80;;;17.80;;
14205;SDS011;7186;48.800;9.216;2022-08-19T03:20:39;24.17;;;17.70;;
14205;SDS011;7186;48.800;9.216;2022-08-19T03:23:06;25.33;;;18.50;;
14205;SDS011;7186;48.800;9.216;2022-08-19T03:25:35;23.70;;;17.57;;
14205;SDS011;7186;48.800;9.216;2022-08-19T03:28:03;24.57;;;18.50;;
14205;SDS011;7186;48.800;9.216;2022-08-19T03:30:28;24.47;;;17.60;;
14205;SDS011;7186;48.800;9.216;2022-08-19T03:32:53;24.37;;;19.13;;
14205;SDS011;7186;48.800;9.216;2022-08-19T03:35:19;24.23;;;18.33;;
14205;SDS011;7186;48.800;9.216;2022-08-19T03:37:45;24.37;;;18.40;;
14205;SDS011;7186;48.800;9.216;2022-08-19T03:40:10;24.30;;;18.07;;
14205;SDS011;7186;48.800;9.216;2022-08-19T03:42:36;27.47;;;19.57;;
14205;SDS011;7186;48.800;9.216;2022-08-19T03:45:01;24.60;;;19.27;;
14205;SDS011;7186;48.800;9.216;2022-08-19T03:47:27;25.10;;;19.43;;
14205;SDS011;7186;48.800;9.216;2022-08-19T03:49:52;27.13;;;18.63;;
14205;SDS011;7186;48.800;9.216;2022-08-19T03:52:18;23.57;;;18.53;;
14205;SDS011;7186;48.800;9.216;2022-08-19T03:54:44;28.27;;;19.53;;
14205;SDS011;7186;48.800;9.216;2022-08-19T03:57:09;25.33;;;18.90;;
14205;SDS011;7186;48.800;9.216;2022-08-19T03:59:36;28.57;;;19.10;;
14205;SDS011;7186;48.800;9.216;2022-08-19T04:02:05;27.30;;;20.07;;
14205;SDS011;7186;48.800;9.216;2022-08-19T04:04:34;27.77;;;19.63;;
14205;SDS011;7186;48.800;9.216;2022-08-19T04:07:00;28.50;;;20.17;;
14205;SDS011;7186;48.800;9.216;2022-08-19T04:09:26;28.43;;;19.87;;
14205;SDS011;7186;48.800;9.216;2022-08-19T04:11:53;26.07;;;20.23;;
14205;SDS011;7186;48.800;9.216;2022-08-19T04:14:21;24.33;;;19.07;;
14205;SDS011;7186;48.800;9.216;2022-08-19T04:16:49;27.00;;;19.67;;
14205;SDS011;7186;48.800;9.216;2022-08-19T04:19:15;30.37;;;20.20;;
14205;SDS011;7186;48.800;9.216;2022-08-19T04:21:43;26.60;;;19.80;;
14205;SDS011;7186;48.800;9.216;2022-08-19T04:24:10;26.80;;;19.73;;
14205;SDS011;7186;48.800;9.216;2022-08-19T04:26:36;30.23;;;21.83;;
14205;SDS011;7186;48.800;9.216;2022-08-19T04:29:09;26.93;;;19.80;;
14205;SDS011;7186;48.800;9.216;2022-08-19T04:31:40;28.17;;;19.73;;
14205;SDS011;7186;48.800;9.216;2022-08-19T04:34:07;27.47;;;20.63;;
14205;SDS011;7186;48.800;9.216;2022-08-19T04:36:38;27.63;;;20.27;;
14205;SDS011;7186;48.800;9.216;2022-08-19T04:39:10;27.57;;;20.17;;
14205;SDS011;7186;48.800;9.216;2022-08-19T04:41:40;28.37;;;20.80;;
14205;SDS011;7186;48.800;9.216;2022-08-19T04:44:24;27.67;;;20.40;;
14205;SDS011;7186;48.800;9.216;2022-08-19T04:46:50;28.53;;;20.60;;
14205;SDS011;7186;48.800;9.216;2022-08-19T04:49:18;25.03;;;20.43;;
14205;SDS011;7186;48.800;9.216;2022-08-19T04:51:46;28.40;;;21.07;;
14205;SDS011;7186;48.800;9.216;2022-08-19T04:54:12;34.00;;;21.87;;
14205;SDS011;7186;48.800;9.216;2022-08-19T04:56:39;28.83;;;20.93;;
14205;SDS011;7186;48.800;9.216;2022-08-19T04:59:06;25.13;;;19.63;;
14205;SDS011;7186;48.800;9.216;2022-08-19T05:01:32;29.50;;;20.90;;
14205;SDS011;7186;48.800;9.216;2022-08-19T05:04:03;28.60;;;21.17;;
14205;SDS011;7186;48.800;9.216;2022-08-19T05:06:30;25.93;;;21.23;;
14205;SDS011;7186;48.800;9.216;2022-08-19T05:09:00;29.37;;;21.30;;
14205;SDS011;7186;48.800;9.216;2022-08-19T05:11:29;31.57;;;21.67;;
14205;SDS011;7186;48.800;9.216;2022-08-19T05:13:59;27.73;;;20.57;;
14205;SDS011;7186;48.800;9.216;2022-08-19T05:16:25;26.80;;;20.73;;
14205;SDS011;7186;48.800;9.216;2022-08-19T05:18:52;25.10;;;19.73;;
14205;SDS011;7186;48.800;9.216;2022-08-19T05:21:36;26.77;;;20.50;;
14205;SDS011;7186;48.800;9.216;2022-08-19T05:24:22;26.03;;;20.23;;
14205;SDS011;7186;48.800;9.216;2022-08-19T05:26:49;26.87;;;19.13;;
14205;SDS011;7186;48.800;9.216;2022-08-19T05:29:16;29.53;;;21.80;;
14205;SDS011;7186;48.800;9.216;2022-08-19T05:31:46;28.53;;;20.60;;
14205;SDS011;7186;48.800;9.216;2022-08-19T05:34:14;27.60;;;20.90;;
14205;SDS011;7186;48.800;9.216;2022-08-19T05:36:40;25.03;;;19.93;;
14205;SDS011;7186;48.800;9.216;2022-08-19T05:39:08;27.90;;;20.33;;
14205;SDS011;7186;48.800;9.216;2022-08-19T05:41:36;23.90;;;20.03;;
14205;SDS011;7186;48.800;9.216;2022-08-19T05:44:02;28.27;;;20.60;;
14205;SDS011;7186;48.800;9.216;2022-08-19T05:46:31;25.93;;;20.13;;
14205;SDS011;7186;48.800;9.216;2022-08-19T05:48:57;28.90;;;21.50;;
14205;SDS011;7186;48.800;9.216;2022-08-19T05:51:23;26.53;;;19.47;;
14205;SDS011;7186;48.800;9.216;2022-08-19T05:53:49;26.37;;;20.30;;
14205;SDS011;7186;48.800;9.216;2022-08-19T05:56:15;26.60;;;20.37;;
14205;SDS011;7186;48.800;9.216;2022-08-19T05:58:41;26.47;;;20.27;;
14205;SDS011;7186;48.800;9.216;2022-08-19T06:01:11;26.20;;;20.70;;
14205;SDS011;7186;48.800;9.216;2022-08-19T06:03:38;26.93;;;20.40;;
14205;SDS011;7186;48.800;9.216;2022-08-19T06:06:04;28.27;;;20.03;;
14205;SDS011;7186;48.800;9.216;2022-08-19T06:08:32;25.43;;;19.87;;
14205;SDS011;7186;48.800;9.216;2022-08-19T06:10:58;30.80;;;21.77;;
14205;SDS011;7186;48.800;9.216;2022-08-19T06:13:57;27.10;;;20.50;;
14205;SDS011;7186;48.800;9.216;2022-08-19T06:16:26;27.93;;;20.80;;
14205;SDS011;7186;48.800;9.216;2022-08-19T06:18:53;25.70;;;20.50;;
14205;SDS011;7186;48.800;9.216;2022-08-19T06:21:22;27.67;;;21.20;;
14205;SDS011;7186;48.800;9.216;2022-08-19T06:23:49;27.27;;;20.50;;
14205;SDS011;7186;48.800;9.216;2022-08-19T06:26:16;27.10;;;20.50;;
14205;SDS011;7186;48.800;9.216;2022-08-19T06:28:42;48.27;;;24.73;;
14205;SDS011;7186;48.800;9.216;2022-08-19T06:31:11;27.47;;;20.37;;
14205;SDS011;7186;48.800;9.216;2022-08-19T06:33:41;30.93;;;21.93;;
14205;SDS011;7186;48.800;9.216;2022-08-19T06:36:08;30.67;;;21.43;;
14205;SDS011;7186;48.800;9.216;2022-08-19T06:38:41;26.40;;;20.37;;
14205;SDS011;7186;48.800;9.216;2022-08-19T06:41:07;29.97;;;22.20;;
14205;SDS011;7186;48.800;9.216;2022-08-19T06:43:33;29.20;;;20.17;;
14205;SDS011;7186;48.800;9.216;2022-08-19T06:45:58;30.17;;;19.87;;
14205;SDS011;7186;48.800;9.216;2022-08-19T06:48:24;28.40;;;21.17;;
14205;SDS011;7186;48.800;9.216;2022-08-19T06:50:49;28.83;;;21.73;;
14205;SDS011;7186;48.800;9.216;2022-08-19T06:53:16;26.93;;;21.13;;
14205;SDS011;7186;48.800;9.216;2022-08-19T06:55:44;31.60;;;22.20;;
14205;SDS011;7186;48.800;9.216;2022-08-19T06:58:10;28.70;;;20.40;;
14205;SDS011;7186;48.800;9.216;2022-08-19T07:00:35;25.07;;;20.30;;
14205;SDS011;7186;48.800;9.216;2022-08-19T07:03:01;29.60;;;20.33;;
14205;SDS011;7186;48.800;9.216;2022-08-19T07:05:27;26.63;;;21.07;;
14205;SDS011;7186;48.800;9.216;2022-08-19T07:07:53;27.20;;;20.30;;
14205;SDS011;7186;48.800;9.216;2022-08-19T07:10:18;27.53;;;19.97;;
14205;SDS011;7186;48.800;9.216;2022-08-19T07:13:04;29.23;;;21.40;;
14205;SDS011;7186;48.800;9.216;2022-08-19T07:15:30;29.43;;;20.20;;
14205;SDS011;7186;48.800;9.216;2022-08-19T07:17:56;31.17;;;21.47;;
14205;SDS011;7186;48.800;9.216;2022-08-19T07:20:21;27.40;;;20.50;;
14205;SDS011;7186;48.800;9.216;2022-08-19T07:22:46;25.87;;;20.53;;
14205;SDS011;7186;48.800;9.216;2022-08-19T07:25:12;28.33;;;20.30;;
14205;SDS011;7186;48.800;9.216;2022-08-19T07:27:38;25.93;;;20.23;;
14205;SDS011;7186;48.800;9.216;2022-08-19T07:30:04;26.47;;;19.87;;
14205;SDS011;7186;48.800;9.216;2022-08-19T07:32:30;26.33;;;18.47;;
14205;SDS011;7186;48.800;9.216;2022-08-19T07:34:55;22.77;;;18.47;;
14205;SDS011;7186;48.800;9.216;2022-08-19T07:37:21;25.93;;;19.60;;
14205;SDS011;7186;48.800;9.216;2022-08-19T07:39:46;28.77;;;18.77;;
14205;SDS011;7186;48.800;9.216;2022-08-19T07:42:12;23.77;;;18.10;;
14205;SDS011;7186;48.800;9.216;2022-08-19T07:44:38;25.00;;;17.97;;
14205;SDS011;7186;48.800;9.216;2022-08-19T07:47:05;25.30;;;18.50;;
14205;SDS011;7186;48.800;9.216;2022-08-19T07:49:31;26.83;;;19.43;;
14205;SDS011;7186;48.800;9.216;2022-08-19T07:52:01;26.20;;;19.23;;
14205;SDS011;7186;48.800;9.216;2022-08-19T07:54:30;26.73;;;19.67;;
14205;SDS011;7186;48.800;9.216;2022-08-19T07:56:59;21.90;;;17.47;;
14205;SDS011;7186;48.800;9.216;2022-08-19T07:59:24;22.57;;;18.37;;
14205;SDS011;7186;48.800;9.216;2022-08-19T08:01:50;23.40;;;19.00;;
14205;SDS011;7186;48.800;9.216;2022-08-19T08:04:16;25.70;;;18.23;;
14205;SDS011;7186;48.800;9.216;2022-08-19T08:07:01;25.13;;;18.20;;
14205;SDS011;7186;48.800;9.216;2022-08-19T08:09:46;23.77;;;17.90;;
14205;SDS011;7186;48.800;9.216;2022-08-19T08:12:13;22.80;;;18.67;;
14205;SDS011;7186;48.800;9.216;2022-08-19T08:14:48;25.87;;;19.40;;
14205;SDS011;7186;48.800;9.216;2022-08-19T08:17:15;23.00;;;17.10;;
14205;SDS011;7186;48.800;9.216;2022-08-19T08:19:42;24.70;;;19.30;;
14205;SDS011;7186;48.800;9.216;2022-08-19T08:22:10;26.90;;;18.93;;
14205;SDS011;7186;48.800;9.216;2022-08-19T08:25:13;23.90;;;18.07;;
14205;SDS011;7186;48.800;9.216;2022-08-19T08:27:43;22.73;;;17.93;;
14205;SDS011;7186;48.800;9.216;2022-08-19T08:30:11;23.43;;;18.50;;
14205;SDS011;7186;48.800;9.216;2022-08-19T08:32:47;26.30;;;17.83;;
14205;SDS011;7186;48.800;9.216;2022-08-19T08:35:14;22.73;;;17.90;;
14205;SDS011;7186;48.800;9.216;2022-08-19T08:37:41;24.33;;;19.37;;
14205;SDS011;7186;48.800;9.216;2022-08-19T08:40:26;27.30;;;18.67;;
14205;SDS011;7186;48.800;9.216;2022-08-19T08:46:05;28.83;;;16.85;;
14205;SDS011;7186;48.800;9.216;2022-08-19T08:48:39;24.23;;;14.82;;
14205;SDS011;7186;48.800;9.216;2022-08-19T08:51:15;23.83;;;14.20;;
14205;SDS011;7186;48.800;9.216;2022-08-19T08:53:54;17.55;;;14.27;;
14205;SDS011;7186;48.800;9.216;2022-08-19T08:56:20;21.85;;;14.50;;
14205;SDS011;7186;48.800;9.216;2022-08-19T08:59:02;18.58;;;13.63;;
14205;SDS011;7186;48.800;9.216;2022-08-19T09:01:35;15.17;;;12.80;;
14205;SDS011;7186;48.800;9.216;2022-08-19T09:04:05;16.50;;;12.53;;
14205;SDS011;7186;48.800;9.216;2022-08-19T09:06:36;19.55;;;13.77;;
14205;SDS011;7186;48.800;9.216;2022-08-19T09:16:56;19.20;;;16.17;;
14205;SDS011;7186;48.800;9.216;2022-08-19T09:19:21;17.43;;;15.57;;
14205;SDS011;7186;48.800;9.216;2022-08-19T09:21:46;21.10;;;16.60;;
14205;SDS011;7186;48.800;9.216;2022-08-19T09:24:13;20.27;;;15.63;;
14205;SDS011;7186;48.800;9.216;2022-08-19T09:26:38;21.37;;;16.73;;
14205;SDS011;7186;48.800;9.216;2022-08-19T09:29:03;19.57;;;16.17;;
14205;SDS011;7186;48.800;9.216;2022-08-19T09:31:31;22.10;;;16.83;;
14205;SDS011;7186;48.800;9.216;2022-08-19T09:33:57;20.43;;;16.23;;
14205;SDS011;7186;48.800;9.216;2022-08-19T09:36:23;22.47;;;17.20;;
14205;SDS011;7186;48.800;9.216;2022-08-19T09:38:49;23.13;;;18.00;;
14205;SDS011;7186;48.800;9.216;2022-08-19T09:41:16;22.50;;;17.40;;
14205;SDS011;7186;48.800;9.216;2022-08-19T09:43:43;20.87;;;16.50;;
14205;SDS011;7186;48.800;9.216;2022-08-19T09:46:09;22.83;;;16.50;;
14205;SDS011;7186;48.800;9.216;2022-08-19T09:48:35;19.33;;;16.03;;
14205;SDS011;7186;48.800;9.216;2022-08-19T09:51:20;20.63;;;15.80;;
14205;SDS011;7186;48.800;9.216;2022-08-19T09:53:46;18.97;;;15.63;;
14205;SDS011;7186;48.800;9.216;2022-08-19T09:56:12;20.67;;;15.60;;
14205;SDS011;7186;48.800;9.216;2022-08-19T09:58:37;17.47;;;14.50;;
14205;SDS011;7186;48.800;9.216;2022-08-19T10:01:03;20.97;;;16.27;;
14205;SDS011;7186;48.800;9.216;2022-08-19T10:03:30;19.13;;;14.93;;
14205;SDS011;7186;48.800;9.216;2022-08-19T10:05:56;15.53;;;13.83;;
14205;SDS011;7186;48.800;9.216;2022-08-19T10:08:25;17.77;;;14.70;;
14205;SDS011;7186;48.800;9.216;2022-08-19T10:10:51;17.30;;;14.33;;
14205;SDS011;7186;48.800;9.216;2022-08-19T10:13:17;19.20;;;14.80;;
14205;SDS011;7186;48.800;9.216;2022-08-19T10:15:46;18.90;;;14.40;;
14205;SDS011;7186;48.800;9.216;2022-08-19T10:18:11;17.73;;;14.73;;
14205;SDS011;7186;48.800;9.216;2022-08-19T10:20:37;18.33;;;14.27;;
14205;SDS011;7186;48.800;9.216;2022-08-19T10:23:02;17.23;;;14.40;;
14205;SDS011;7186;48.800;9.216;2022-08-19T10:25:28;15.53;;;13.83;;
14205;SDS011;7186;48.800;9.216;2022-08-19T10:27:53;17.80;;;13.93;;
14205;SDS011;7186;48.800;9.216;2022-08-19T10:30:19;16.50;;;14.33;;
14205;SDS011;7186;48.800;9.216;2022-08-19T10:32:44;16.63;;;14.37;;
14205;SDS011;7186;48.800;9.216;2022-08-19T10:35:10;16.93;;;13.37;;
14205;SDS011;7186;48.800;9.216;2022-08-19T10:37:36;18.97;;;13.67;;
14205;SDS011;7186;48.800;9.216;2022-08-19T10:40:02;17.97;;;13.77;;
14205;SDS011;7186;48.800;9.216;2022-08-19T10:42:28;15.43;;;13.40;;
14205;SDS011;7186;48.800;9.216;2022-08-19T10:44:55;16.57;;;13.47;;
14205;SDS011;7186;48.800;9.216;2022-08-19T10:47:21;13.90;;;12.33;;
14205;SDS011;7186;48.800;9.216;2022-08-19T10:49:48;16.37;;;12.93;;
14205;SDS011;7186;48.800;9.216;2022-08-19T10:52:31;15.50;;;12.80;;
14205;SDS011;7186;48.800;9.216;2022-08-19T10:55:01;14.30;;;12.33;;
14205;SDS011;7186;48.800;9.216;2022-08-19T10:57:44;17.40;;;11.63;;
14205;SDS011;7186;48.800;9.216;2022-08-19T11:00:10;13.87;;;11.80;;
14205;SDS011;7186;48.800;9.216;2022-08-19T11:02:36;14.27;;;11.50;;
14205;SDS011;7186;48.800;9.216;2022-08-19T11:05:01;12.30;;;11.00;;
14205;SDS011;7186;48.800;9.216;2022-08-19T11:07:26;13.07;;;10.93;;
14205;SDS011;7186;48.800;9.216;2022-08-19T11:09:51;12.80;;;10.77;;
14205;SDS011;7186;48.800;9.216;2022-08-19T11:12:17;13.70;;;9.83;;
14205;SDS011;7186;48.800;9.216;2022-08-19T11:14:42;13.07;;;10.40;;
14205;SDS011;7186;48.800;9.216;2022-08-19T11:17:07;13.53;;;10.30;;
14205;SDS011;7186;48.800;9.216;2022-08-19T11:19:33;12.93;;;9.70;;
14205;SDS011;7186;48.800;9.216;2022-08-19T11:21:58;13.50;;;9.97;;
14205;SDS011;7186;48.800;9.216;2022-08-19T11:24:27;13.87;;;9.27;;
14205;SDS011;7186;48.800;9.216;2022-08-19T11:26:53;10.87;;;9.13;;
14205;SDS011;7186;48.800;9.216;2022-08-19T11:29:22;13.67;;;9.20;;
14205;SDS011;7186;48.800;9.216;2022-08-19T11:31:50;10.40;;;9.00;;
14205;SDS011;7186;48.800;9.216;2022-08-19T11:34:17;13.53;;;9.47;;
14205;SDS011;7186;48.800;9.216;2022-08-19T11:36:44;12.30;;;9.50;;
14205;SDS011;7186;48.800;9.216;2022-08-19T11:39:10;12.30;;;9.97;;
14205;SDS011;7186;48.800;9.216;2022-08-19T11:41:35;12.03;;;9.17;;
14205;SDS011;7186;48.800;9.216;2022-08-19T11:44:01;11.60;;;9.20;;
14205;SDS011;7186;48.800;9.216;2022-08-19T11:46:29;10.00;;;9.00;;
14205;SDS011;7186;48.800;9.216;2022-08-19T11:48:56;12.20;;;9.47;;
14205;SDS011;7186;48.800;9.216;2022-08-19T11:51:22;11.57;;;8.63;;
14205;SDS011;7186;48.800;9.216;2022-08-19T11:53:49;11.80;;;8.53;;
14205;SDS011;7186;48.800;9.216;2022-08-19T11:56:15;15.97;;;9.50;;
14205;SDS011;7186;48.800;9.216;2022-08-19T11:58:41;9.80;;;8.83;;
14205;SDS011;7186;48.800;9.216;2022-08-19T12:01:09;11.17;;;8.90;;
14205;SDS011;7186;48.800;9.216;2022-08-19T12:03:36;10.80;;;9.03;;
14205;SDS011;7186;48.800;9.216;2022-08-19T12:06:08;20.87;;;16.93;;
14205;SDS011;7186;48.800;9.216;2022-08-19T12:08:34;29.23;;;22.47;;
14205;SDS011;7186;48.800;9.216;2022-08-19T12:10:59;32.50;;;22.27;;
14205;SDS011;7186;48.800;9.216;2022-08-19T12:13:28;33.00;;;23.33;;
14205;SDS011;7186;48.800;9.216;2022-08-19T12:15:55;34.30;;;23.57;;
14205;SDS011;7186;48.800;9.216;2022-08-19T12:18:20;32.07;;;24.57;;
14205;SDS011;7186;48.800;9.216;2022-08-19T12:20:45;32.50;;;24.13;;
14205;SDS011;7186;48.800;9.216;2022-08-19T12:23:11;31.67;;;24.47;;
14205;SDS011;7186;48.800;9.216;2022-08-19T12:25:37;30.33;;;24.00;;
14205;SDS011;7186;48.800;9.216;2022-08-19T12:28:08;34.83;;;25.57;;
14205;SDS011;7186;48.800;9.216;2022-08-19T12:30:33;33.10;;;25.67;;
14205;SDS011;7186;48.800;9.216;2022-08-19T12:33:02;35.83;;;25.77;;
14205;SDS011;7186;48.800;9.216;2022-08-19T12:35:27;31.50;;;24.63;;
14205;SDS011;7186;48.800;9.216;2022-08-19T12:37:53;30.97;;;22.70;;
14205;SDS011;7186;48.800;9.216;2022-08-19T12:40:18;29.33;;;21.33;;
14205;SDS011;7186;48.800;9.216;2022-08-19T12:42:44;25.53;;;20.80;;
14205;SDS011;7186;48.800;9.216;2022-08-19T12:45:11;27.67;;;20.40;;
14205;SDS011;7186;48.800;9.216;2022-08-19T12:47:36;24.27;;;20.40;;
14205;SDS011;7186;48.800;9.216;2022-08-19T12:50:02;29.43;;;20.90;;
14205;SDS011;7186;48.800;9.216;2022-08-19T12:52:28;28.77;;;20.83;;
14205;SDS011;7186;48.800;9.216;2022-08-19T12:54:55;29.53;;;21.90;;
14205;SDS011;7186;48.800;9.216;2022-08-19T12:57:21;26.73;;;21.77;;
14205;SDS011;7186;48.800;9.216;2022-08-19T12:59:47;27.57;;;20.77;;
14205;SDS011;7186;48.800;9.216;2022-08-19T13:02:12;28.13;;;22.00;;
14205;SDS011;7186;48.800;9.216;2022-08-19T13:04:37;25.73;;;20.30;;
14205;SDS011;7186;48.800;9.216;2022-08-19T13:07:06;31.00;;;22.87;;
14205;SDS011;7186;48.800;9.216;2022-08-19T13:09:31;30.00;;;23.07;;
14205;SDS011;7186;48.800;9.216;2022-08-19T13:11:57;28.23;;;22.47;;
14205;SDS011;7186;48.800;9.216;2022-08-19T13:14:22;28.33;;;22.30;;
14205;SDS011;7186;48.800;9.216;2022-08-19T13:16:47;32.73;;;24.73;;
14205;SDS011;7186;48.800;9.216;2022-08-19T13:19:13;35.50;;;25.07;;
14205;SDS011;7186;48.800;9.216;2022-08-19T13:21:38;33.20;;;25.03;;
14205;SDS011;7186;48.800;9.216;2022-08-19T13:24:03;29.00;;;24.80;;
14205;SDS011;7186;48.800;9.216;2022-08-19T13:26:29;34.10;;;25.63;;
14205;SDS011;7186;48.800;9.216;2022-08-19T13:28:55;33.53;;;25.23;;
14205;SDS011;7186;48.800;9.216;2022-08-19T13:31:39;34.20;;;25.23;;
14205;SDS011;7186;48.800;9.216;2022-08-19T13:34:28;32.50;;;24.03;;
14205;SDS011;7186;48.800;9.216;2022-08-19T13:36:53;36.87;;;25.93;;
14205;SDS011;7186;48.800;9.216;2022-08-19T13:39:19;29.90;;;24.10;;
14205;SDS011;7186;48.800;9.216;2022-08-19T13:41:46;35.33;;;25.90;;
14205;SDS011;7186;48.800;9.216;2022-08-19T13:44:13;33.83;;;25.37;;
14205;SDS011;7186;48.800;9.216;2022-08-19T13:46:38;34.63;;;24.87;;
14205;SDS011;7186;48.800;9.216;2022-08-19T13:49:03;35.40;;;26.17;;
14205;SDS011;7186;48.800;9.216;2022-08-19T13:51:29;36.77;;;26.60;;
14205;SDS011;7186;48.800;9.216;2022-08-19T13:53:54;35.43;;;26.73;;
14205;SDS011;7186;48.800;9.216;2022-08-19T13:56:20;33.57;;;26.03;;
14205;SDS011;7186;48.800;9.216;2022-08-19T13:58:45;39.20;;;27.53;;
14205;SDS011;7186;48.800;9.216;2022-08-19T14:01:11;37.33;;;27.03;;
14205;SDS011;7186;48.800;9.216;2022-08-19T14:03:36;35.33;;;27.47;;
14205;SDS011;7186;48.800;9.216;2022-08-19T14:06:02;35.27;;;26.70;;
14205;SDS011;7186;48.800;9.216;2022-08-19T14:08:28;40.63;;;26.93;;
14205;SDS011;7186;48.800;9.216;2022-08-19T14:10:54;38.60;;;27.47;;
14205;SDS011;7186;48.800;9.216;2022-08-19T14:13:20;36.73;;;26.87;;
14205;SDS011;7186;48.800;9.216;2022-08-19T14:15:46;36.87;;;26.90;;
14205;SDS011;7186;48.800;9.216;2022-08-19T14:18:12;35.50;;;26.87;;
14205;SDS011;7186;48.800;9.216;2022-08-19T14:20:38;37.43;;;27.23;;
14205;SDS011;7186;48.800;9.216;2022-08-19T14:23:03;35.57;;;27.30;;
14205;SDS011;7186;48.800;9.216;2022-08-19T14:25:31;35.53;;;26.77;;
14205;SDS011;7186;48.800;9.216;2022-08-19T14:27:57;37.47;;;27.00;;
14205;SDS011;7186;48.800;9.216;2022-08-19T14:30:24;34.03;;;26.50;;
14205;SDS011;7186;48.800;9.216;2022-08-19T14:32:51;36.93;;;26.63;;
14205;SDS011;7186;48.800;9.216;2022-08-19T14:35:17;37.70;;;27.80;;
14205;SDS011;7186;48.800;9.216;2022-08-19T14:37:43;34.40;;;26.73;;
14205;SDS011;7186;48.800;9.216;2022-08-19T14:40:09;36.70;;;26.33;;
14205;SDS011;7186;48.800;9.216;2022-08-19T14:42:35;36.53;;;26.43;;
14205;SDS011;7186;48.800;9.216;2022-08-19T14:45:01;33.90;;;26.13;;
14205;SDS011;7186;48.800;9.216;2022-08-19T14:47:26;33.57;;;25.47;;
14205;SDS011;7186;48.800;9.216;2022-08-19T14:49:51;34.20;;;25.17;;